Time;durP1;ratioP1;P1;durP2;ratioP2;P2;SDS_P1;SDS_P2;PMS_P1;PMS_P2;Temp;Humidity;BMP_temperature;BMP_pressure;BME280_temperature;BME280_humidity;BME280_pressure;Samples;Min_cycle;Max_cycle;Signal;HPM_P1;HPM_P2
2022/07/13 00:01:48;;;;;;;2.40;2.30;;;;;;;13.36;100.00;97755.78;5043871;28;20257;-58
2022/07/13 00:04:17;;;;;;;2.33;2.23;;;;;;;13.31;100.00;97760.84;4997386;28;20224;-59
2022/07/13 00:06:46;;;;;;;2.40;2.30;;;;;;;13.25;100.00;97757.09;5040926;28;20248;-59
2022/07/13 00:09:14;;;;;;;2.33;2.23;;;;;;;13.18;100.00;97753.53;5038173;28;20292;-58
2022/07/13 00:11:42;;;;;;;2.60;2.50;;;;;;;13.12;100.00;97749.78;5041893;28;20311;-57
2022/07/13 00:14:11;;;;;;;2.60;2.50;;;;;;;13.10;100.00;97753.66;5037734;28;20582;-55
2022/07/13 00:16:39;;;;;;;2.27;2.17;;;;;;;13.06;100.00;97736.38;5037532;28;20504;-55
2022/07/13 00:19:07;;;;;;;2.60;2.50;;;;;;;13.03;100.00;97740.25;5033219;28;20719;-59
2022/07/13 00:21:35;;;;;;;2.50;2.40;;;;;;;12.96;100.00;97739.34;4994689;28;20490;-54
2022/07/13 00:24:05;;;;;;;2.63;2.43;;;;;;;12.89;100.00;97733.94;5037287;28;20223;-57
2022/07/13 00:26:33;;;;;;;2.33;2.23;;;;;;;12.92;100.00;97740.75;5033983;28;20407;-59
2022/07/13 00:29:01;;;;;;;2.80;2.70;;;;;;;12.91;100.00;97744.41;5036485;28;20322;-58
2022/07/13 00:31:29;;;;;;;3.27;3.07;;;;;;;12.77;100.00;97743.41;5038598;28;20215;-60
2022/07/13 00:33:57;;;;;;;2.70;2.50;;;;;;;12.74;100.00;97745.44;5039205;28;20357;-59
2022/07/13 00:36:25;;;;;;;2.83;2.63;;;;;;;12.72;100.00;97738.63;4996888;28;20945;-59
2022/07/13 00:38:53;;;;;;;3.03;2.73;;;;;;;12.73;100.00;97742.94;5036095;28;20216;-56
2022/07/13 00:41:23;;;;;;;2.60;2.50;;;;;;;12.70;100.00;97748.63;5031817;28;20247;-60
2022/07/13 00:43:52;;;;;;;2.80;2.47;;;;;;;12.67;100.00;97741.84;5037357;28;20203;-61
2022/07/13 00:46:20;;;;;;;2.77;2.57;;;;;;;12.65;100.00;97746.50;5032146;28;20234;-57
2022/07/13 00:48:48;;;;;;;2.73;2.63;;;;;;;12.59;100.00;97744.59;5035395;28;20793;-55
2022/07/13 00:51:16;;;;;;;2.60;2.50;;;;;;;12.56;100.00;97742.31;5036968;28;20277;-56
2022/07/13 00:53:44;;;;;;;2.83;2.70;;;;;;;12.52;100.00;97746.34;4982734;28;20660;-60
2022/07/13 00:56:12;;;;;;;3.20;2.90;;;;;;;12.50;100.00;97738.56;5038934;28;20631;-55
2022/07/13 00:58:43;;;;;;;2.60;2.50;;;;;;;12.52;100.00;97749.84;5033196;28;20307;-60
2022/07/13 01:01:11;;;;;;;2.37;2.30;;;;;;;12.45;100.00;97733.78;5040027;28;20224;-60
2022/07/13 01:03:39;;;;;;;2.90;2.70;;;;;;;12.40;100.00;97732.66;5039695;28;20195;-60
2022/07/13 01:06:09;;;;;;;2.70;2.50;;;;;;;12.41;100.00;97737.81;5039124;28;20785;-61
2022/07/13 01:08:37;;;;;;;2.83;2.73;;;;;;;12.39;100.00;97737.16;4997459;28;20480;-62
2022/07/13 01:11:05;;;;;;;2.83;2.50;;;;;;;12.36;100.00;97737.53;5040702;28;20203;-55
2022/07/13 01:13:34;;;;;;;2.80;2.70;;;;;;;12.23;100.00;97732.00;5033565;28;20790;-57
2022/07/13 01:16:05;;;;;;;2.53;2.43;;;;;;;12.33;100.00;97737.06;5032776;28;20210;-59
2022/07/13 01:18:33;;;;;;;2.80;2.70;;;;;;;12.29;100.00;97744.56;5039032;28;20654;-56
2022/07/13 01:21:02;;;;;;;2.73;2.53;;;;;;;12.24;100.00;97723.88;5035832;28;20521;-57
2022/07/13 01:23:32;;;;;;;2.73;2.50;;;;;;;12.23;100.00;97730.19;5001666;28;20813;-58
2022/07/13 01:26:00;;;;;;;3.60;2.57;;;;;;;12.15;100.00;97724.97;5034992;28;20503;-53
2022/07/13 01:28:28;;;;;;;2.47;2.37;;;;;;;12.15;100.00;97730.28;5040664;28;20572;-58
2022/07/13 01:30:56;;;;;;;3.03;2.87;;;;;;;12.12;100.00;97739.41;5024493;28;20211;-58
2022/07/13 01:33:24;;;;;;;2.70;2.60;;;;;;;12.07;100.00;97728.50;5038997;28;20211;-57
2022/07/13 01:35:52;;;;;;;2.40;2.30;;;;;;;12.04;100.00;97736.00;5040203;28;20434;-58
2022/07/13 01:38:21;;;;;;;2.83;2.63;;;;;;;11.98;100.00;97734.88;5038249;28;20215;-62
2022/07/13 01:40:50;;;;;;;2.33;2.23;;;;;;;11.93;100.00;97732.75;4996013;28;20313;-56
2022/07/13 01:43:24;;;;;;;2.80;2.70;;;;;;;11.90;100.00;97729.59;5044606;28;20630;-57
2022/07/13 01:45:52;;;;;;;3.10;2.90;;;;;;;11.86;100.00;97731.81;5023372;28;20806;-60
2022/07/13 01:48:20;;;;;;;3.27;3.10;;;;;;;11.85;100.00;97738.94;5042154;28;20243;-61
2022/07/13 01:50:48;;;;;;;2.97;2.87;;;;;;;11.79;100.00;97742.31;5036695;28;20230;-58
2022/07/13 01:53:16;;;;;;;2.90;2.80;;;;;;;11.73;100.00;97727.09;5040801;28;20230;-60
2022/07/13 01:55:45;;;;;;;3.13;2.93;;;;;;;11.69;100.00;97726.63;4993536;28;20825;-58
2022/07/13 01:58:14;;;;;;;2.77;2.67;;;;;;;11.66;100.00;97729.63;5039745;28;20645;-56
2022/07/13 02:00:42;;;;;;;3.43;3.17;;;;;;;11.64;100.00;97728.16;5025572;28;20325;-57
2022/07/13 02:03:10;;;;;;;3.13;3.03;;;;;;;11.61;100.00;97729.34;5039968;28;20262;-55
2022/07/13 02:05:39;;;;;;;3.17;2.97;;;;;;;11.58;100.00;97727.03;5033756;28;20220;-58
2022/07/13 02:08:07;;;;;;;3.20;2.93;;;;;;;11.46;100.00;97705.38;5038851;28;20210;-56
2022/07/13 02:10:38;;;;;;;3.30;3.10;;;;;;;11.50;100.00;97727.09;4977941;28;20301;-58
2022/07/13 02:13:08;;;;;;;3.80;3.10;;;;;;;11.46;100.00;97726.63;5040211;28;20294;-58
2022/07/13 02:15:38;;;;;;;3.03;2.87;;;;;;;11.43;100.00;97737.59;5019744;28;20832;-57
2022/07/13 02:18:06;;;;;;;3.27;2.93;;;;;;;11.41;100.00;97729.81;5037204;28;20207;-57
2022/07/13 02:20:35;;;;;;;2.73;2.53;;;;;;;11.38;100.00;97727.53;5036144;28;20703;-59
2022/07/13 02:23:03;;;;;;;3.03;2.93;;;;;;;11.33;100.00;97721.06;5041625;28;20211;-58
2022/07/13 02:25:33;;;;;;;3.00;2.90;;;;;;;11.30;100.00;97722.25;4992734;28;22130;-61
2022/07/13 02:28:01;;;;;;;2.43;2.33;;;;;;;11.27;100.00;97725.25;5041634;28;20528;-57
2022/07/13 02:30:29;;;;;;;3.27;3.10;;;;;;;11.27;100.00;97725.25;5016134;28;21042;-60
2022/07/13 02:32:59;;;;;;;3.70;3.40;;;;;;;11.23;100.00;97718.66;5045799;28;20339;-56
2022/07/13 02:35:27;;;;;;;3.07;2.97;;;;;;;11.19;100.00;97722.66;5011998;28;20218;-58
2022/07/13 02:37:56;;;;;;;2.80;2.70;;;;;;;11.15;100.00;97723.00;5040758;28;20207;-58
2022/07/13 02:40:24;;;;;;;2.90;2.80;;;;;;;11.11;100.00;97734.97;5037823;28;20432;-61
2022/07/13 02:42:52;;;;;;;3.30;3.10;;;;;;;11.12;100.00;97727.81;4994758;28;20708;-57
2022/07/13 02:45:21;;;;;;;3.60;3.40;;;;;;;11.09;100.00;97729.00;5037467;28;22164;-54
2022/07/13 02:47:49;;;;;;;3.97;3.77;;;;;;;11.09;100.00;97726.34;5021019;28;20259;-60
2022/07/13 02:50:19;;;;;;;3.17;3.07;;;;;;;11.08;100.00;97721.22;5035026;28;20647;-58
2022/07/13 02:52:47;;;;;;;3.40;3.20;;;;;;;11.06;100.00;97724.06;5042904;28;20499;-60
2022/07/13 02:55:15;;;;;;;3.33;3.23;;;;;;;11.05;100.00;97719.75;5037691;28;20453;-59
2022/07/13 02:57:43;;;;;;;3.20;3.00;;;;;;;11.05;100.00;97722.41;4991233;28;20210;-57
2022/07/13 03:00:12;;;;;;;3.60;3.30;;;;;;;11.00;100.00;97714.94;4977879;28;20232;-58
2022/07/13 03:02:40;;;;;;;3.40;3.20;;;;;;;10.93;100.00;97718.47;5039160;28;20754;-58
2022/07/13 03:05:08;;;;;;;3.50;3.23;;;;;;;10.86;100.00;97715.69;5016521;28;20211;-58
2022/07/13 03:07:39;;;;;;;3.83;3.30;;;;;;;10.85;100.00;97722.81;5041774;28;20427;-56
2022/07/13 03:10:08;;;;;;;3.47;3.27;;;;;;;10.88;100.00;97724.31;5045009;28;20945;-59
2022/07/13 03:12:36;;;;;;;3.43;3.23;;;;;;;10.86;100.00;97708.56;5035447;28;20316;-60
2022/07/13 03:15:05;;;;;;;4.23;3.80;;;;;;;10.95;100.00;97708.50;4991354;28;20208;-59
2022/07/13 03:17:33;;;;;;;3.57;3.40;;;;;;;11.05;100.00;97719.75;5039055;28;20194;-58
2022/07/13 03:20:01;;;;;;;3.33;3.23;;;;;;;11.08;100.00;97729.16;5018464;28;20238;-59
2022/07/13 03:22:30;;;;;;;3.03;2.93;;;;;;;11.12;100.00;97730.47;5038110;28;20231;-60
2022/07/13 03:25:00;;;;;;;3.47;3.30;;;;;;;11.15;100.00;97736.25;5040566;28;20575;-51
2022/07/13 03:27:28;;;;;;;3.60;3.40;;;;;;;11.22;100.00;97731.09;5037361;28;20599;-59
2022/07/13 03:29:56;;;;;;;3.20;3.10;;;;;;;11.26;100.00;97728.91;4992727;28;21190;-59
2022/07/13 03:32:24;;;;;;;3.40;3.30;;;;;;;11.26;100.00;97736.84;5033052;28;20227;-58
2022/07/13 03:34:52;;;;;;;3.80;3.60;;;;;;;11.27;100.00;97739.34;5037406;28;20211;-59
2022/07/13 03:37:20;;;;;;;3.70;3.50;;;;;;;11.39;100.00;97736.28;5022384;28;20223;-58
2022/07/13 03:39:48;;;;;;;4.03;3.73;;;;;;;11.43;100.00;97735.78;5042504;28;20222;-52
2022/07/13 03:42:18;;;;;;;3.37;3.27;;;;;;;11.53;100.00;97732.88;5034989;28;20642;-57
2022/07/13 03:44:46;;;;;;;3.33;3.23;;;;;;;11.65;100.00;97732.47;4989863;28;20444;-58
2022/07/13 03:47:14;;;;;;;3.60;3.40;;;;;;;11.74;100.00;97728.75;5034377;28;20309;-58
2022/07/13 03:49:42;;;;;;;3.87;3.67;;;;;;;11.82;100.00;97723.38;5040855;28;20465;-54
2022/07/13 03:52:10;;;;;;;3.90;3.70;;;;;;;11.86;100.00;97708.72;5000693;28;20844;-56
2022/07/13 03:54:38;;;;;;;3.60;3.30;;;;;;;11.88;100.00;97721.84;5036247;28;20227;-60
2022/07/13 03:57:06;;;;;;;3.70;3.50;;;;;;;11.93;100.00;97711.50;5040800;28;20297;-57
2022/07/13 03:59:35;;;;;;;3.43;3.33;;;;;;;11.99;100.00;97704.66;5037873;28;20428;-57
2022/07/13 04:02:04;;;;;;;3.57;3.40;;;;;;;12.06;100.00;97705.59;4995051;28;20627;-57
2022/07/13 04:04:32;;;;;;;3.47;3.27;;;;;;;12.09;100.00;97705.25;5037691;28;20225;-60
2022/07/13 04:07:00;;;;;;;3.20;3.10;;;;;;;12.12;100.00;97704.03;5017591;28;20269;-58
2022/07/13 04:09:29;;;;;;;3.70;3.50;;;;;;;12.18;100.00;97708.66;5038871;28;20307;-59
2022/07/13 04:11:57;;;;;;;3.63;3.50;;;;;;;12.19;100.00;97710.31;5037244;28;20265;-60
2022/07/13 04:14:25;;;;;;;3.43;3.23;;;;;;;12.24;100.00;97713.25;5033232;28;20203;-57
2022/07/13 04:16:54;;;;;;;4.13;3.70;;;;;;;12.26;100.00;97711.22;5013338;28;20256;-60
2022/07/13 04:19:23;;;;;;;3.23;3.13;;;;;;;12.23;100.00;97714.25;5023892;28;20766;-59
2022/07/13 04:21:51;;;;;;;3.03;2.93;;;;;;;12.23;100.00;97708.09;5041232;28;20242;-59
2022/07/13 04:24:22;;;;;;;3.57;3.37;;;;;;;12.29;100.00;97710.03;5025591;28;20198;-59
2022/07/13 04:26:51;;;;;;;3.50;3.30;;;;;;;12.36;100.00;97705.66;5041689;28;20196;-59
2022/07/13 04:29:19;;;;;;;3.43;3.23;;;;;;;12.44;100.00;97704.72;5033082;28;20223;-55
2022/07/13 04:31:47;;;;;;;3.50;3.30;;;;;;;12.51;100.00;97715.44;5008818;28;20268;-58
2022/07/13 04:34:17;;;;;;;3.30;3.07;;;;;;;12.56;100.00;97705.09;5036610;28;20200;-57
2022/07/13 04:36:45;;;;;;;5.00;3.37;;;;;;;12.65;100.00;97703.16;5030714;28;20268;-59
2022/07/13 04:39:13;;;;;;;3.17;2.97;;;;;;;12.66;100.00;97694.19;5035789;28;20306;-57
2022/07/13 04:41:42;;;;;;;4.40;4.10;;;;;;;12.73;100.00;97701.25;5044101;28;20820;-59
2022/07/13 04:44:10;;;;;;;3.87;3.67;;;;;;;12.70;100.00;97690.97;5042661;28;20207;-58
2022/07/13 04:46:38;;;;;;;3.47;3.27;;;;;;;12.83;100.00;97700.94;5010454;28;20239;-58
2022/07/13 04:49:06;;;;;;;4.20;3.90;;;;;;;12.97;100.00;97701.13;5042860;28;20230;-56
2022/07/13 04:51:36;;;;;;;4.27;3.97;;;;;;;13.15;100.00;97700.69;5038510;28;20501;-60
2022/07/13 04:54:05;;;;;;;4.20;3.80;;;;;;;13.11;100.00;97691.44;5033758;28;20269;-59
2022/07/13 04:56:33;;;;;;;5.13;4.13;;;;;;;13.32;100.00;97694.13;5040606;28;20404;-60
2022/07/13 04:59:01;;;;;;;3.97;3.77;;;;;;;13.36;100.00;97689.25;5039922;28;20310;-57
2022/07/13 05:01:29;;;;;;;4.17;3.87;;;;;;;13.41;100.00;97694.84;5043486;28;20671;-61
2022/07/13 05:03:58;;;;;;;4.37;4.07;;;;;;;13.48;100.00;97694.94;5016989;28;20222;-60
2022/07/13 05:06:26;;;;;;;4.47;4.17;;;;;;;13.47;100.00;97690.63;5008651;28;20655;-58
2022/07/13 05:08:56;;;;;;;4.20;3.40;;;;;;;13.51;100.00;97675.09;5047698;28;20226;-60
2022/07/13 05:11:24;;;;;;;3.67;3.47;;;;;;;13.54;100.00;97682.69;5038852;28;20986;-59
2022/07/13 05:13:52;;;;;;;3.50;3.30;;;;;;;13.58;100.00;97671.47;5041092;28;20289;-60
2022/07/13 05:16:20;;;;;;;3.97;3.77;;;;;;;13.62;100.00;97671.91;5036087;28;20211;-59
2022/07/13 05:18:48;;;;;;;4.00;3.80;;;;;;;13.68;100.00;97672.97;5046724;28;20234;-59
2022/07/13 05:21:17;;;;;;;4.13;3.83;;;;;;;13.65;100.00;97665.38;5024673;28;20281;-60
2022/07/13 05:23:45;;;;;;;3.53;3.33;;;;;;;13.72;100.00;97671.56;5027709;28;20969;-55
2022/07/13 05:26:14;;;;;;;4.97;3.77;;;;;;;13.85;100.00;97676.19;5038738;28;20215;-59
2022/07/13 05:28:43;;;;;;;3.87;3.67;;;;;;;13.95;100.00;97681.19;5043086;28;20227;-62
2022/07/13 05:31:11;;;;;;;3.43;3.33;;;;;;;14.12;100.00;97693.19;5041334;28;20203;-59
2022/07/13 05:33:40;;;;;;;3.60;3.40;;;;;;;14.25;100.00;97704.97;5038718;28;20196;-61
2022/07/13 05:36:09;;;;;;;3.67;3.47;;;;;;;14.40;100.00;97707.53;5038011;28;20212;-61
2022/07/13 05:38:37;;;;;;;7.50;5.70;;;;;;;14.63;100.00;97701.94;5013439;28;20277;-60
2022/07/13 05:41:05;;;;;;;10.60;9.13;;;;;;;14.91;100.00;97703.72;5040952;28;20486;-60
2022/07/13 05:43:35;;;;;;;5.90;3.73;;;;;;;15.10;100.00;97704.00;5039058;28;20415;-59
2022/07/13 05:46:04;;;;;;;3.20;2.97;;;;;;;15.25;100.00;97701.16;5044492;28;20758;-54
2022/07/13 05:48:32;;;;;;;3.57;3.37;;;;;;;15.33;100.00;97699.13;5038812;28;20516;-60
2022/07/13 05:51:01;;;;;;;4.90;3.30;;;;;;;15.46;100.00;97697.53;5048274;28;20203;-58
2022/07/13 05:53:50;;;;;;;5.40;3.57;;;;;;;15.66;100.00;97691.38;5012437;28;20345;-60
2022/07/13 05:56:18;;;;;;;3.57;3.37;;;;;;;15.73;100.00;97690.34;5042370;28;20214;-59
2022/07/13 05:58:48;;;;;;;3.20;3.00;;;;;;;15.91;100.00;97689.78;5042608;28;20477;-61
2022/07/13 06:01:16;;;;;;;3.10;3.00;;;;;;;15.95;100.00;97687.53;5037455;28;20265;-60
2022/07/13 06:03:44;;;;;;;3.83;3.13;;;;;;;16.07;100.00;97687.69;5039560;28;20227;-62
2022/07/13 06:06:12;;;;;;;3.23;3.10;;;;;;;16.13;100.00;97705.59;5039633;28;20606;-60
2022/07/13 06:08:40;;;;;;;5.27;4.87;;;;;;;16.37;100.00;97697.94;5007748;28;22081;-61
2022/07/13 06:11:09;;;;;;;5.20;4.70;;;;;;;16.81;100.00;97700.94;5042358;28;20714;-59
2022/07/13 06:13:37;;;;;;;3.53;2.80;;;;;;;17.19;100.00;97697.50;5037021;28;20422;-60
2022/07/13 06:16:07;;;;;;;3.63;3.20;;;;;;;17.23;100.00;97695.19;5045889;28;20260;-61
2022/07/13 06:18:36;;;;;;;3.23;3.03;;;;;;;17.41;100.00;97699.03;5040695;28;20251;-61
2022/07/13 06:21:04;;;;;;;3.13;2.93;;;;;;;17.69;100.00;97711.22;5037133;28;20608;-59
2022/07/13 06:23:33;;;;;;;3.00;2.90;;;;;;;17.75;100.00;97702.31;5033279;28;20663;-58
2022/07/13 06:26:01;;;;;;;3.30;3.00;;;;;;;17.85;100.00;97699.16;5011452;28;20212;-53
2022/07/13 06:28:29;;;;;;;2.90;2.80;;;;;;;17.97;100.00;97694.69;5037126;28;20522;-51
2022/07/13 06:30:58;;;;;;;6.83;2.80;;;;;;;18.08;100.00;97702.06;5040853;28;20688;-63
2022/07/13 06:33:27;;;;;;;2.73;2.53;;;;;;;18.22;100.00;97702.75;5036941;28;20196;-61
2022/07/13 06:35:55;;;;;;;3.07;2.87;;;;;;;18.17;100.00;97704.44;5042636;28;20272;-60
2022/07/13 06:38:23;;;;;;;2.87;2.77;;;;;;;18.05;100.00;97707.84;5036625;28;20634;-58
2022/07/13 06:40:52;;;;;;;2.93;2.77;;;;;;;17.96;100.00;97694.91;5011223;28;20216;-59
2022/07/13 06:43:20;;;;;;;2.57;2.47;;;;;;;18.33;100.00;97701.22;5039059;28;20223;-61
2022/07/13 06:45:48;;;;;;;4.40;3.97;;;;;;;18.70;100.00;97697.72;5040337;28;20288;-56
2022/07/13 06:48:16;;;;;;;5.13;4.60;;;;;;;18.86;100.00;97682.06;5039055;28;20423;-62
2022/07/13 06:50:46;;;;;;;3.87;3.57;;;;;;;18.96;100.00;97682.34;5037001;28;20363;-62
2022/07/13 06:53:14;;;;;;;2.60;2.50;;;;;;;19.17;100.00;97681.06;5042849;28;20200;-60
2022/07/13 06:55:42;;;;;;;4.33;2.90;;;;;;;19.50;100.00;97679.78;5010641;28;20423;-62
2022/07/13 06:58:10;;;;;;;2.60;2.40;;;;;;;19.65;100.00;97684.72;5044698;28;20223;-61
2022/07/13 07:00:39;;;;;;;2.97;2.77;;;;;;;19.88;100.00;97679.63;5035709;28;21409;-60
2022/07/13 07:03:07;;;;;;;2.63;2.47;;;;;;;19.98;100.00;97677.19;5037577;28;20208;-61
2022/07/13 07:05:35;;;;;;;2.90;2.70;;;;;;;20.17;100.00;97677.91;5032462;28;20329;-62
2022/07/13 07:08:06;;;;;;;2.57;2.43;;;;;;;20.24;100.00;97686.69;5039900;28;20199;-62
2022/07/13 07:10:34;;;;;;;2.27;2.17;;;;;;;20.34;99.91;97680.72;5043389;28;20595;-60
2022/07/13 07:13:07;;;;;;;2.20;2.10;;;;;;;20.56;100.00;97685.50;4979082;28;20470;-57
2022/07/13 07:15:35;;;;;;;2.83;2.40;;;;;;;20.67;99.90;97691.94;5040524;28;20211;-61
2022/07/13 07:18:04;;;;;;;2.30;2.20;;;;;;;20.92;94.73;97691.66;5037519;28;21153;-56
2022/07/13 07:20:37;;;;;;;2.63;2.43;;;;;;;21.06;92.27;97694.91;5039861;28;20223;-59
2022/07/13 07:23:06;;;;;;;3.43;2.17;;;;;;;21.19;89.15;97695.66;5032004;28;20456;-62
2022/07/13 07:25:34;;;;;;;2.73;2.30;;;;;;;21.50;87.83;97698.94;5036351;28;20223;-60
2022/07/13 07:28:03;;;;;;;2.20;2.00;;;;;;;21.47;83.79;97697.53;5006793;28;20821;-60
2022/07/13 07:30:31;;;;;;;9.83;8.93;;;;;;;21.58;82.38;97689.63;5043045;28;20199;-61
2022/07/13 07:32:59;;;;;;;3.67;2.30;;;;;;;21.76;82.70;97685.91;5035870;28;20598;-60
2022/07/13 07:35:27;;;;;;;2.40;2.30;;;;;;;21.95;80.98;97689.19;5039726;28;20253;-61
2022/07/13 07:37:56;;;;;;;2.13;1.90;;;;;;;22.10;81.17;97683.19;5036235;28;20758;-60
2022/07/13 07:40:25;;;;;;;3.03;2.00;;;;;;;22.26;77.66;97678.84;5038869;28;20453;-62
2022/07/13 07:42:54;;;;;;;4.70;2.77;;;;;;;22.58;77.65;97685.53;5033846;28;20434;-59
2022/07/13 07:45:23;;;;;;;2.30;2.10;;;;;;;22.73;74.00;97687.59;5010537;28;20570;-60
2022/07/13 07:47:51;;;;;;;2.37;1.93;;;;;;;22.85;72.34;97691.00;5036105;28;20226;-59
2022/07/13 07:50:19;;;;;;;2.00;1.90;;;;;;;23.02;69.61;97680.13;5037184;28;20207;-60
2022/07/13 07:52:47;;;;;;;4.13;2.30;;;;;;;23.13;74.23;97686.47;5036651;28;20195;-57
2022/07/13 07:55:21;;;;;;;1.97;1.87;;;;;;;23.11;72.47;97670.50;5040495;28;20207;-63
2022/07/13 07:57:52;;;;;;;4.90;2.90;;;;;;;23.36;71.39;97662.94;5019194;28;20238;-57
2022/07/13 08:00:20;;;;;;;1.93;1.80;;;;;;;23.48;72.79;97663.59;5011159;28;20212;-59
2022/07/13 08:02:48;;;;;;;2.00;1.80;;;;;;;23.48;69.52;97666.28;5036409;28;20227;-61
2022/07/13 08:05:18;;;;;;;3.43;1.90;;;;;;;23.54;71.21;97664.47;5033788;28;20555;-62
2022/07/13 08:07:48;;;;;;;2.10;1.87;;;;;;;23.63;65.39;97657.50;5038967;28;20492;-61
2022/07/13 08:10:17;;;;;;;3.17;1.90;;;;;;;23.40;73.29;97669.47;5034888;28;20699;-57
2022/07/13 08:13:04;;;;;;;2.23;2.00;;;;;;;23.39;72.40;97668.66;5039228;28;20587;-60
2022/07/13 08:15:33;;;;;;;2.30;2.10;;;;;;;23.37;67.46;97668.09;5007442;28;20243;-58
2022/07/13 08:18:01;;;;;;;2.60;2.40;;;;;;;23.18;74.50;97661.38;5034451;28;20421;-58
2022/07/13 08:20:30;;;;;;;2.03;1.87;;;;;;;23.05;72.81;97666.13;5036352;28;20697;-55
2022/07/13 08:22:58;;;;;;;2.33;2.10;;;;;;;23.29;75.50;97651.53;5037076;28;20392;-60
2022/07/13 08:25:27;;;;;;;2.43;1.90;;;;;;;23.43;70.47;97644.63;5036527;28;20216;-58
2022/07/13 08:27:55;;;;;;;3.50;2.67;;;;;;;24.02;65.98;97642.97;5032319;28;20703;-56
2022/07/13 08:30:25;;;;;;;5.97;5.37;;;;;;;24.63;65.02;97636.25;5038358;28;20342;-60
2022/07/13 08:32:53;;;;;;;2.57;2.40;;;;;;;24.86;62.06;97636.91;5015725;28;20511;-60
2022/07/13 08:40:54;;;;;;;2.13;1.90;;;;;;;24.87;61.92;97645.84;5033817;28;20221;-61
2022/07/13 08:43:22;;;;;;;2.57;2.03;;;;;;;25.15;60.83;97648.09;5036463;28;20261;-55
2022/07/13 08:45:52;;;;;;;2.73;1.60;;;;;;;25.43;55.73;97645.97;5036681;28;20528;-59
2022/07/13 08:48:28;;;;;;;2.03;1.93;;;;;;;25.85;54.60;97640.56;5012134;28;21437;-62
2022/07/13 08:50:56;;;;;;;1.77;1.67;;;;;;;25.98;57.11;97636.50;5035454;28;20661;-61
2022/07/13 08:53:25;;;;;;;3.47;2.10;;;;;;;25.92;54.80;97635.66;5036410;28;20211;-58
2022/07/13 08:55:56;;;;;;;1.57;1.47;;;;;;;25.80;54.41;97632.44;5033766;28;20375;-61
2022/07/13 08:58:24;;;;;;;2.57;2.00;;;;;;;25.68;55.89;97628.13;5039387;28;20230;-58
2022/07/13 09:00:54;;;;;;;1.87;1.77;;;;;;;25.69;56.60;97621.59;5033645;28;20198;-61
2022/07/13 09:03:22;;;;;;;2.13;1.63;;;;;;;25.56;57.95;97614.00;5012952;28;20239;-61
2022/07/13 09:05:50;;;;;;;3.60;1.90;;;;;;;25.68;55.80;97621.84;5035948;28;20235;-63
2022/07/13 09:08:20;;;;;;;2.10;1.90;;;;;;;25.63;55.55;97625.41;5045158;28;20865;-61
2022/07/13 09:10:56;;;;;;;2.40;1.70;;;;;;;25.71;56.76;97613.16;5035286;28;20348;-62
2022/07/13 09:13:39;;;;;;;1.83;1.73;;;;;;;26.01;55.38;97608.78;5036769;28;20632;-59
2022/07/13 09:16:16;;;;;;;2.90;1.70;;;;;;;25.99;55.41;97617.22;5042091;28;20282;-56
2022/07/13 09:18:46;;;;;;;2.40;1.83;;;;;;;26.29;50.16;97612.81;5013005;28;21251;-59
2022/07/13 09:21:15;;;;;;;2.43;1.80;;;;;;;26.55;47.58;97618.19;5013237;28;20234;-59
2022/07/13 09:23:43;;;;;;;2.00;1.90;;;;;;;26.90;46.03;97617.50;5034130;28;20764;-59
2022/07/13 09:26:11;;;;;;;3.23;2.93;;;;;;;27.28;46.53;97624.09;5036231;28;20374;-61
2022/07/13 09:28:44;;;;;;;4.00;3.67;;;;;;;27.79;42.23;97624.78;5044087;28;20506;-58
2022/07/13 09:31:12;;;;;;;1.60;1.50;;;;;;;27.90;44.06;97605.63;5025946;28;20215;-62
2022/07/13 09:33:44;;;;;;;3.13;1.70;;;;;;;28.10;42.07;97604.63;5042140;28;20208;-62
2022/07/13 09:36:14;;;;;;;2.20;1.87;;;;;;;28.45;40.18;97608.91;5011055;28;20415;-58
2022/07/13 09:38:43;;;;;;;5.20;1.70;;;;;;;28.70;41.25;97596.03;5042593;28;20681;-62
2022/07/13 09:41:22;;;;;;;2.03;1.50;;;;;;;28.85;40.43;97596.97;5036234;28;20346;-62
2022/07/13 09:47:00;;;;;;;3.47;1.70;;;;;;;28.83;40.71;97594.53;4998013;28;20274;-59
2022/07/13 09:49:35;;;;;;;3.53;1.67;;;;;;;28.82;40.98;97592.13;5011200;28;20212;-61
2022/07/13 09:52:05;;;;;;;3.17;1.50;;;;;;;28.56;40.44;97595.94;4978930;28;21009;-58
2022/07/13 09:54:35;;;;;;;1.80;1.70;;;;;;;28.59;40.42;97598.06;5012358;28;20220;-60
2022/07/13 09:57:05;;;;;;;2.10;1.20;;;;;;;28.44;39.54;97601.81;5003138;28;20201;-58
2022/07/13 09:59:35;;;;;;;1.70;1.60;;;;;;;28.20;40.08;97606.44;5005493;28;20295;-61
2022/07/13 10:02:05;;;;;;;2.00;1.90;;;;;;;28.25;39.70;97592.78;4996794;28;20204;-55
2022/07/13 10:04:36;;;;;;;1.57;1.30;;;;;;;28.21;40.34;97592.53;5006116;28;20200;-62
2022/07/13 10:07:17;;;;;;;2.13;1.50;;;;;;;28.21;40.04;97597.19;4976966;28;20693;-57
2022/07/13 10:09:46;;;;;;;1.50;1.40;;;;;;;28.34;39.75;97599.19;5009743;28;20227;-62
2022/07/13 10:12:14;;;;;;;1.80;1.43;;;;;;;28.41;40.21;97599.69;5007063;28;20378;-61
2022/07/13 10:14:42;;;;;;;2.53;2.33;;;;;;;28.35;38.90;97594.56;5006482;28;20204;-60
2022/07/13 10:17:20;;;;;;;1.10;1.10;;;;;;;28.37;37.24;97587.72;4996834;28;20369;-61
2022/07/13 10:19:58;;;;;;;1.53;1.13;;;;;;;28.27;37.55;97590.56;5012095;28;20221;-58
2022/07/13 10:22:29;;;;;;;0.97;0.97;;;;;;;28.18;35.47;97587.66;5007684;28;20223;-62
2022/07/13 10:24:58;;;;;;;1.00;1.00;;;;;;;28.26;35.65;97589.78;5041259;28;20202;-59
2022/07/13 10:27:28;;;;;;;0.93;0.93;;;;;;;28.38;34.80;97589.34;5041071;28;20194;-59
2022/07/13 10:29:58;;;;;;;2.63;0.80;;;;;;;28.28;33.57;97590.28;5039821;28;20824;-57
2022/07/13 10:32:27;;;;;;;1.10;1.10;;;;;;;28.29;35.24;97585.63;5033420;28;20747;-60
2022/07/13 10:34:59;;;;;;;3.40;1.20;;;;;;;28.23;33.67;97587.63;5042146;28;20197;-60
2022/07/13 10:37:27;;;;;;;1.53;1.10;;;;;;;28.26;32.11;97578.88;5013285;28;20207;-62
2022/07/13 10:40:13;;;;;;;0.80;0.80;;;;;;;28.08;32.44;97582.31;5038061;28;20225;-60
2022/07/13 10:43:09;;;;;;;1.07;1.07;;;;;;;28.14;31.27;97581.16;5041601;28;20535;-61
2022/07/13 10:45:40;;;;;;;1.20;1.20;;;;;;;28.16;31.10;97581.69;5035707;28;20733;-62
2022/07/13 10:48:11;;;;;;;1.07;1.00;;;;;;;28.17;33.50;97588.75;5029911;28;20251;-57
2022/07/13 10:50:45;;;;;;;0.90;0.90;;;;;;;28.26;34.32;97588.94;5038580;28;20201;-57
2022/07/13 10:53:15;;;;;;;1.30;1.20;;;;;;;28.37;33.29;97587.72;5005657;28;20725;-61
2022/07/13 10:55:47;;;;;;;3.20;1.10;;;;;;;28.44;34.07;97579.19;5039655;28;20203;-61
2022/07/13 10:58:43;;;;;;;0.90;0.90;;;;;;;27.93;30.19;97588.72;5037111;28;20391;-58
2022/07/13 11:01:44;;;;;;;1.80;1.17;;;;;;;27.80;30.40;97579.31;5031941;28;20197;-59
2022/07/13 11:04:15;;;;;;;1.17;1.10;;;;;;;27.72;31.15;97578.84;5026009;28;20298;-61
2022/07/13 11:07:05;;;;;;;1.70;1.10;;;;;;;27.73;31.12;97572.31;5036532;28;20315;-60
2022/07/13 11:09:33;;;;;;;1.50;1.00;;;;;;;27.83;31.32;97562.41;5013010;28;20261;-61
2022/07/13 11:12:01;;;;;;;1.60;0.83;;;;;;;27.63;31.13;97566.13;5039901;28;20203;-59
2022/07/13 11:14:52;;;;;;;2.97;0.90;;;;;;;27.61;32.20;97563.72;5040790;28;20675;-61
2022/07/13 11:17:23;;;;;;;1.63;1.10;;;;;;;27.68;32.20;97563.38;5035984;28;20724;-61
2022/07/13 11:19:53;;;;;;;2.30;0.90;;;;;;;27.87;32.05;97558.03;5028398;28;20469;-59
2022/07/13 11:22:24;;;;;;;1.13;1.00;;;;;;;27.88;32.29;97549.56;5038633;28;20788;-60
2022/07/13 11:25:15;;;;;;;1.43;1.40;;;;;;;28.04;31.72;97552.13;5005503;28;20304;-60
2022/07/13 11:27:57;;;;;;;3.27;1.30;;;;;;;28.19;31.85;97545.69;5007526;28;20454;-62
2022/07/13 11:30:29;;;;;;;1.00;1.00;;;;;;;28.30;31.27;97549.13;5032743;28;20214;-61
2022/07/13 11:32:58;;;;;;;1.50;0.90;;;;;;;28.49;32.47;97546.44;5038159;28;20202;-62
2022/07/13 11:35:26;;;;;;;3.47;1.03;;;;;;;28.63;30.60;97551.97;5028317;28;20224;-62
2022/07/13 11:37:56;;;;;;;5.33;1.50;;;;;;;28.58;30.39;97547.38;5038450;28;20201;-61
2022/07/13 11:40:30;;;;;;;1.47;0.90;;;;;;;28.30;29.78;97539.06;5032747;28;20526;-62
2022/07/13 11:43:02;;;;;;;2.30;2.10;;;;;;;28.45;29.10;97550.84;5007423;28;20706;-61
2022/07/13 11:45:31;;;;;;;0.73;0.73;;;;;;;28.40;28.61;97537.28;5035286;28;20470;-61
2022/07/13 11:48:00;;;;;;;0.90;0.90;;;;;;;28.42;29.24;97530.47;5037269;28;20224;-60
2022/07/13 11:50:45;;;;;;;2.03;1.00;;;;;;;28.56;28.80;97535.19;5026972;28;20792;-61